Time;durP1;ratioP1;P1;durP2;ratioP2;P2;SDS_P1;SDS_P2;PMS_P1;PMS_P2;Temp;Humidity;BMP_temperature;BMP_pressure;BME280_temperature;BME280_humidity;BME280_pressure;Samples;Min_cycle;Max_cycle;Signal;HPM_P1;HPM_P2
2021/05/24 00:01:49;;;;;;;2.67;1.60;;;5.40;99.90;;;;;;5033643;28;20087;-70
2021/05/24 00:04:15;;;;;;;2.35;1.40;;;5.40;99.90;;;;;;5034260;28;20059;-70
2021/05/24 00:06:41;;;;;;;3.90;1.33;;;5.40;99.90;;;;;;5033731;28;20447;-70
2021/05/24 00:09:07;;;;;;;2.95;1.67;;;5.40;99.90;;;;;;5033459;28;20040;-70
2021/05/24 00:11:33;;;;;;;3.45;1.73;;;5.40;99.90;;;;;;5032392;28;20022;-70
2021/05/24 00:13:59;;;;;;;3.75;1.58;;;5.40;99.90;;;;;;5033656;28;20488;-70
2021/05/24 00:16:25;;;;;;;3.80;1.52;;;5.40;99.90;;;;;;5033522;28;20044;-70
2021/05/24 00:18:51;;;;;;;2.97;1.58;;;5.40;99.90;;;;;;5033471;28;20029;-70
2021/05/24 00:21:21;;;;;;;4.18;2.08;;;5.40;99.90;;;;;;5033412;28;20037;-69
2021/05/24 00:23:48;;;;;;;2.60;1.52;;;5.40;99.90;;;;;;5033552;28;20013;-70
2021/05/24 00:26:15;;;;;;;4.40;1.40;;;5.40;99.90;;;;;;5032595;28;20392;-71
2021/05/24 00:28:41;;;;;;;2.92;1.48;;;5.40;99.90;;;;;;5029320;28;20054;-70
2021/05/24 00:31:07;;;;;;;2.42;1.50;;;5.40;99.90;;;;;;5023326;28;20548;-70
2021/05/24 00:33:33;;;;;;;4.13;1.70;;;5.40;99.90;;;;;;5033417;28;20049;-70
2021/05/24 00:36:00;;;;;;;1.88;1.40;;;5.40;99.90;;;;;;5032770;28;20662;-70
2021/05/24 00:38:26;;;;;;;3.88;1.88;;;5.40;99.90;;;;;;5033022;28;20056;-70
2021/05/24 00:40:52;;;;;;;1.77;1.50;;;5.40;99.90;;;;;;5033076;28;20029;-70
2021/05/24 00:43:18;;;;;;;2.13;1.48;;;5.40;99.90;;;;;;5033200;28;20059;-70
2021/05/24 00:45:43;;;;;;;2.90;1.65;;;5.40;99.90;;;;;;5032756;28;20100;-70
2021/05/24 00:48:10;;;;;;;4.43;1.83;;;5.40;99.90;;;;;;5033151;28;20673;-70
2021/05/24 00:50:36;;;;;;;3.63;1.80;;;5.40;99.90;;;;;;5033082;28;20036;-70
2021/05/24 00:53:02;;;;;;;2.75;1.45;;;5.40;99.90;;;;;;5032657;28;20026;-70
2021/05/24 00:55:28;;;;;;;4.15;1.80;;;5.40;99.90;;;;;;5033167;28;20033;-70
2021/05/24 00:57:55;;;;;;;4.05;1.63;;;5.40;99.90;;;;;;4997771;28;20033;-70
2021/05/24 01:00:36;;;;;;;2.70;1.73;;;5.40;99.90;;;;;;5025209;28;20412;-70
2021/05/24 01:03:06;;;;;;;4.28;1.67;;;5.40;99.90;;;;;;5032451;28;20455;-70
2021/05/24 01:05:32;;;;;;;6.28;2.00;;;5.50;99.90;;;;;;5032854;28;20024;-69
2021/05/24 01:07:58;;;;;;;2.40;1.50;;;5.50;99.90;;;;;;5032284;28;20412;-69
2021/05/24 01:10:24;;;;;;;1.70;1.50;;;5.50;99.90;;;;;;5032807;28;20413;-69
2021/05/24 01:12:50;;;;;;;4.85;1.70;;;5.50;99.90;;;;;;5032395;28;20033;-70
2021/05/24 01:15:16;;;;;;;2.90;1.50;;;5.40;99.90;;;;;;5032457;28;20056;-70
2021/05/24 01:17:43;;;;;;;3.97;1.58;;;5.50;99.90;;;;;;5031235;28;20061;-68
2021/05/24 01:20:10;;;;;;;4.25;1.70;;;5.50;99.90;;;;;;5032425;28;20096;-69
2021/05/24 01:22:38;;;;;;;3.78;1.58;;;5.50;99.90;;;;;;5020390;28;20045;-70
2021/05/24 01:25:06;;;;;;;1.45;1.30;;;5.50;99.90;;;;;;5030687;28;20052;-70
2021/05/24 01:27:32;;;;;;;6.65;1.85;;;5.50;99.90;;;;;;5032403;28;20029;-70
2021/05/24 01:29:59;;;;;;;3.22;1.60;;;5.50;99.90;;;;;;5031986;28;20108;-70
2021/05/24 01:32:25;;;;;;;2.22;1.35;;;5.50;99.90;;;;;;5032397;28;20075;-70
2021/05/24 01:34:52;;;;;;;4.05;1.65;;;5.50;99.90;;;;;;5032100;28;20491;-70
2021/05/24 01:37:18;;;;;;;3.58;1.40;;;5.50;99.90;;;;;;5031592;28;20715;-70
2021/05/24 01:39:44;;;;;;;4.68;1.40;;;5.50;99.90;;;;;;5032095;28;20021;-70
2021/05/24 01:42:10;;;;;;;1.42;1.23;;;5.50;99.90;;;;;;5031695;28;20078;-70
2021/05/24 01:44:38;;;;;;;2.03;1.48;;;5.50;99.90;;;;;;5032030;28;20068;-70
2021/05/24 01:47:06;;;;;;;1.83;1.50;;;5.50;99.90;;;;;;5031757;28;20034;-70
2021/05/24 01:49:33;;;;;;;3.35;1.58;;;5.50;99.90;;;;;;5032221;28;20076;-70
2021/05/24 01:51:59;;;;;;;3.53;1.95;;;5.50;99.90;;;;;;5031547;28;20388;-70
2021/05/24 01:54:25;;;;;;;2.05;1.17;;;5.50;99.90;;;;;;5031814;28;20017;-70
2021/05/24 01:56:50;;;;;;;3.42;1.50;;;5.50;99.90;;;;;;5031555;28;20029;-70
2021/05/24 01:59:17;;;;;;;1.92;1.50;;;5.50;99.90;;;;;;5031685;28;20030;-70
2021/05/24 02:01:43;;;;;;;2.35;1.25;;;5.50;99.90;;;;;;5019779;28;20026;-70
2021/05/24 02:04:09;;;;;;;2.85;1.60;;;5.50;99.90;;;;;;4998452;28;20028;-71
2021/05/24 02:06:34;;;;;;;1.52;1.30;;;5.50;99.90;;;;;;5031643;28;20084;-71
2021/05/24 02:09:01;;;;;;;5.32;1.40;;;5.50;99.90;;;;;;5031463;28;20026;-70
2021/05/24 02:11:28;;;;;;;4.13;2.35;;;5.50;99.90;;;;;;5031538;28;20036;-71
2021/05/24 02:13:54;;;;;;;2.67;1.23;;;5.50;99.90;;;;;;5013626;28;20026;-70
2021/05/24 02:16:32;;;;;;;4.40;1.90;;;5.60;99.90;;;;;;5031480;28;20040;-70
2021/05/24 02:18:57;;;;;;;3.20;1.55;;;5.60;99.90;;;;;;5031286;28;20109;-70
2021/05/24 02:21:23;;;;;;;4.85;1.42;;;5.60;99.90;;;;;;5031512;28;20100;-70
2021/05/24 02:23:49;;;;;;;2.95;1.70;;;5.60;99.90;;;;;;5031696;28;20025;-70
2021/05/24 02:26:15;;;;;;;3.78;1.63;;;5.60;99.90;;;;;;5031140;28;20037;-70
2021/05/24 02:28:40;;;;;;;1.58;1.25;;;5.70;99.90;;;;;;5013695;28;20053;-70
2021/05/24 02:31:06;;;;;;;2.10;1.50;;;5.60;99.90;;;;;;5031252;28;20030;-70
2021/05/24 02:33:32;;;;;;;5.97;1.90;;;5.60;99.90;;;;;;5031161;28;20083;-70
2021/05/24 02:35:59;;;;;;;2.95;1.60;;;5.50;99.90;;;;;;5030955;28;20049;-70
2021/05/24 02:38:25;;;;;;;1.70;1.35;;;5.50;99.90;;;;;;5031451;28;20456;-70
2021/05/24 02:40:51;;;;;;;2.78;1.58;;;5.60;99.90;;;;;;5031362;28;20507;-70
2021/05/24 02:43:17;;;;;;;2.60;1.52;;;5.50;99.90;;;;;;5031159;28;20036;-70
2021/05/24 02:45:45;;;;;;;2.83;1.30;;;5.50;99.90;;;;;;5031368;28;20025;-70
2021/05/24 02:48:11;;;;;;;3.50;1.70;;;5.50;99.90;;;;;;5031260;28;20026;-70
2021/05/24 02:50:36;;;;;;;1.85;1.58;;;5.60;99.90;;;;;;5033883;28;20438;-69
2021/05/24 02:53:02;;;;;;;2.72;1.50;;;5.60;99.90;;;;;;5017256;28;20030;-70
2021/05/24 02:55:28;;;;;;;3.80;1.40;;;5.60;99.90;;;;;;5035023;28;20026;-69
2021/05/24 02:57:54;;;;;;;2.60;1.60;;;5.60;99.90;;;;;;5035017;28;20078;-70
2021/05/24 03:00:20;;;;;;;2.50;1.40;;;5.70;99.90;;;;;;5035195;28;20119;-69
2021/05/24 03:02:47;;;;;;;2.38;1.55;;;5.60;99.90;;;;;;5028327;28;20160;-69
2021/05/24 03:05:19;;;;;;;4.80;1.58;;;5.70;99.90;;;;;;5015496;28;20026;-69
2021/05/24 03:07:45;;;;;;;4.25;1.90;;;5.70;99.90;;;;;;5015159;28;20041;-69
2021/05/24 03:10:12;;;;;;;3.00;1.55;;;5.70;99.90;;;;;;5027059;28;20105;-69
2021/05/24 03:12:38;;;;;;;2.03;1.50;;;5.80;99.90;;;;;;5016876;28;20025;-69
2021/05/24 03:15:04;;;;;;;2.28;1.52;;;5.80;99.90;;;;;;5034573;28;20491;-69
2021/05/24 03:17:30;;;;;;;2.03;1.77;;;5.80;99.90;;;;;;5034355;28;20039;-70
2021/05/24 03:19:56;;;;;;;3.67;1.60;;;5.80;99.90;;;;;;5034849;28;20100;-69
2021/05/24 03:22:22;;;;;;;2.15;1.30;;;5.80;99.90;;;;;;5034646;28;20469;-70
2021/05/24 03:24:47;;;;;;;3.42;1.83;;;5.90;99.90;;;;;;5016765;28;20080;-70
2021/05/24 03:27:13;;;;;;;7.22;2.00;;;5.80;99.90;;;;;;5034494;28;20017;-70
2021/05/24 03:29:39;;;;;;;4.55;1.58;;;5.90;99.90;;;;;;5034387;28;20052;-70
2021/05/24 03:32:05;;;;;;;3.08;1.73;;;5.90;99.90;;;;;;5034231;28;20053;-70
2021/05/24 03:34:30;;;;;;;2.53;1.90;;;5.90;99.90;;;;;;5034309;28;20116;-70
2021/05/24 03:36:57;;;;;;;4.47;1.45;;;5.90;99.90;;;;;;5033638;28;20045;-70
2021/05/24 03:39:22;;;;;;;1.90;1.70;;;5.90;99.90;;;;;;5034196;28;20437;-70
2021/05/24 03:41:48;;;;;;;2.00;1.52;;;6.00;99.90;;;;;;5034280;28;20108;-70
2021/05/24 03:44:14;;;;;;;2.75;1.50;;;6.00;99.90;;;;;;5033858;28;20076;-69
2021/05/24 03:46:40;;;;;;;1.98;1.60;;;6.00;99.90;;;;;;5033864;28;20432;-69
2021/05/24 03:49:06;;;;;;;3.10;1.75;;;6.00;99.90;;;;;;5033912;28;20021;-69
2021/05/24 03:51:31;;;;;;;4.97;2.20;;;6.10;99.90;;;;;;5034135;28;20497;-69
2021/05/24 03:53:58;;;;;;;3.85;2.10;;;6.10;99.90;;;;;;5034131;28;20022;-69
2021/05/24 03:56:24;;;;;;;2.92;1.85;;;6.10;99.90;;;;;;5016012;28;20033;-69
2021/05/24 03:58:50;;;;;;;4.93;2.00;;;6.10;99.90;;;;;;5031317;28;20416;-69
2021/05/24 04:01:16;;;;;;;3.03;1.85;;;6.20;99.90;;;;;;5013015;28;20380;-69
2021/05/24 04:03:42;;;;;;;3.35;1.80;;;6.20;99.90;;;;;;5014225;28;20390;-69
2021/05/24 04:06:10;;;;;;;4.97;2.10;;;6.20;99.90;;;;;;5013895;28;20034;-69
2021/05/24 04:08:42;;;;;;;2.55;1.90;;;6.30;99.90;;;;;;4997098;28;20030;-69
2021/05/24 04:11:10;;;;;;;4.57;1.77;;;6.30;99.90;;;;;;5033601;28;20026;-68
2021/05/24 04:13:36;;;;;;;2.63;1.73;;;6.30;99.90;;;;;;5033577;28;20064;-68
2021/05/24 04:16:02;;;;;;;1.83;1.73;;;6.40;99.90;;;;;;5033614;28;20072;-67
2021/05/24 04:18:31;;;;;;;3.83;1.55;;;6.40;99.90;;;;;;5033437;28;20445;-67
2021/05/24 04:20:58;;;;;;;3.53;1.80;;;6.40;99.90;;;;;;5033556;28;20022;-68
2021/05/24 04:23:24;;;;;;;4.13;2.20;;;6.40;99.90;;;;;;5033394;28;20072;-69
2021/05/24 04:25:49;;;;;;;2.35;1.55;;;6.30;99.90;;;;;;5033384;28;20071;-68
2021/05/24 04:28:15;;;;;;;5.68;2.55;;;6.40;99.90;;;;;;5033372;28;20040;-68
2021/05/24 04:30:42;;;;;;;4.00;1.85;;;6.40;99.90;;;;;;5033364;28;20041;-72
2021/05/24 04:33:08;;;;;;;2.78;1.80;;;6.50;99.90;;;;;;5015031;28;20485;-71
2021/05/24 04:35:35;;;;;;;2.67;1.88;;;6.50;99.90;;;;;;5032423;28;20492;-71
2021/05/24 04:38:00;;;;;;;1.52;1.00;;;6.50;99.90;;;;;;5014493;28;20667;-73
2021/05/24 04:40:26;;;;;;;5.88;1.83;;;8.30;99.90;;;;;;5018457;28;20049;-72
2021/05/24 04:42:53;;;;;;;5.57;1.80;;;9.60;99.90;;;;;;5028882;28;20027;-72
2021/05/24 04:45:19;;;;;;;4.13;1.90;;;9.20;99.90;;;;;;5030117;28;20028;-72
2021/05/24 04:47:45;;;;;;;3.85;1.83;;;8.60;99.90;;;;;;5033013;28;20033;-71
2021/05/24 04:50:11;;;;;;;4.78;1.88;;;8.20;99.90;;;;;;5024115;28;20018;-72
2021/05/24 04:52:37;;;;;;;3.65;2.10;;;7.90;99.90;;;;;;5018792;28;20385;-72
2021/05/24 04:55:05;;;;;;;3.25;2.20;;;7.60;99.90;;;;;;5015469;28;20026;-73
2021/05/24 04:57:30;;;;;;;4.60;2.20;;;7.60;99.90;;;;;;5012999;28;20107;-69
2021/05/24 04:59:56;;;;;;;2.83;2.10;;;7.50;99.90;;;;;;5014347;28;20022;-69
2021/05/24 05:02:22;;;;;;;3.03;1.90;;;7.40;99.90;;;;;;5018111;28;20025;-69
2021/05/24 05:04:48;;;;;;;4.05;2.30;;;7.40;99.90;;;;;;5012522;28;20113;-69
2021/05/24 05:07:14;;;;;;;4.30;1.95;;;7.40;99.90;;;;;;5012421;28;20104;-69
2021/05/24 05:09:40;;;;;;;2.80;1.85;;;7.40;99.90;;;;;;5015338;28;20025;-72
2021/05/24 05:12:06;;;;;;;3.47;2.08;;;7.40;99.90;;;;;;5011775;28;20049;-73
2021/05/24 05:14:32;;;;;;;4.53;2.30;;;7.30;99.90;;;;;;5015208;28;20022;-69
2021/05/24 05:16:57;;;;;;;5.05;2.33;;;7.30;99.90;;;;;;5014471;28;20413;-71
2021/05/24 05:19:23;;;;;;;3.17;2.05;;;7.30;99.90;;;;;;5012261;28;20612;-69
2021/05/24 05:21:50;;;;;;;2.05;1.80;;;7.40;99.90;;;;;;5024477;28;20464;-69
2021/05/24 05:24:16;;;;;;;4.63;1.60;;;7.40;99.90;;;;;;5005114;28;20508;-70
2021/05/24 05:26:42;;;;;;;2.33;1.90;;;7.30;99.90;;;;;;5030840;28;20467;-70
2021/05/24 05:29:09;;;;;;;3.20;1.92;;;7.30;99.90;;;;;;5031696;28;20061;-70
2021/05/24 05:31:34;;;;;;;3.28;2.03;;;7.30;99.90;;;;;;5032211;28;20017;-72
2021/05/24 05:34:01;;;;;;;2.53;1.80;;;7.30;99.90;;;;;;5031909;28;20036;-70
2021/05/24 05:36:28;;;;;;;3.60;2.10;;;7.30;99.90;;;;;;5031309;28;20420;-72
2021/05/24 05:38:54;;;;;;;3.15;1.88;;;7.40;99.90;;;;;;5031917;28;20040;-70
2021/05/24 05:41:20;;;;;;;4.85;2.25;;;7.30;99.90;;;;;;5031758;28;20100;-69
2021/05/24 05:43:46;;;;;;;4.30;1.98;;;7.30;99.90;;;;;;5027280;28;20041;-69
2021/05/24 05:46:12;;;;;;;2.17;1.98;;;7.30;99.90;;;;;;5031105;28;20393;-68
2021/05/24 05:48:37;;;;;;;2.67;2.00;;;7.30;99.90;;;;;;5031722;28;20025;-69
2021/05/24 05:51:04;;;;;;;2.10;1.80;;;7.30;99.90;;;;;;5031834;28;20111;-68
2021/05/24 05:53:32;;;;;;;3.33;2.08;;;7.30;99.90;;;;;;5031560;28;20105;-69
2021/05/24 05:55:58;;;;;;;3.20;2.05;;;7.30;99.90;;;;;;5031359;28;20483;-69
2021/05/24 05:58:24;;;;;;;2.15;1.70;;;7.30;99.90;;;;;;5031524;28;20041;-69
2021/05/24 06:00:50;;;;;;;1.55;1.45;;;7.30;99.90;;;;;;5031556;28;20483;-69
2021/05/24 06:03:16;;;;;;;4.70;1.90;;;7.30;99.90;;;;;;5031971;28;20029;-68
2021/05/24 06:05:42;;;;;;;2.80;1.80;;;7.80;99.90;;;;;;5031388;28;20017;-69
2021/05/24 06:08:07;;;;;;;3.45;1.73;;;7.90;99.90;;;;;;5026896;28;20027;-71
2021/05/24 06:10:34;;;;;;;3.65;1.85;;;7.90;99.90;;;;;;5031407;28;20029;-71
2021/05/24 06:13:00;;;;;;;1.83;1.60;;;7.80;99.90;;;;;;5031716;28;20025;-72
2021/05/24 06:15:26;;;;;;;2.92;1.83;;;7.70;99.90;;;;;;5016928;28;20758;-72
2021/05/24 06:17:51;;;;;;;2.10;1.60;;;7.70;99.90;;;;;;5017209;28;20168;-71
2021/05/24 06:20:17;;;;;;;3.35;1.65;;;7.70;99.90;;;;;;5017778;28;20041;-70
2021/05/24 06:22:44;;;;;;;3.67;1.63;;;7.70;99.90;;;;;;5016311;28;20030;-69
2021/05/24 06:25:11;;;;;;;3.03;2.10;;;7.80;99.90;;;;;;5014742;28;20413;-69
2021/05/24 06:27:38;;;;;;;2.72;1.60;;;7.80;99.90;;;;;;5012427;28;20029;-73
2021/05/24 06:30:09;;;;;;;17.77;2.00;;;7.80;99.90;;;;;;5012901;28;20105;-79
2021/05/24 06:32:35;;;;;;;3.90;1.55;;;8.00;99.90;;;;;;5014094;28;20022;-79
2021/05/24 06:35:01;;;;;;;2.53;1.80;;;8.40;99.90;;;;;;5014135;28;20021;-75
2021/05/24 06:37:26;;;;;;;2.08;1.50;;;8.80;99.90;;;;;;5020028;28;20049;-69
2021/05/24 06:39:52;;;;;;;2.35;1.73;;;9.00;99.90;;;;;;5030876;28;20048;-70
2021/05/24 06:42:18;;;;;;;2.50;1.90;;;8.80;99.90;;;;;;5015893;28;20039;-69
2021/05/24 06:44:44;;;;;;;2.50;1.25;;;8.70;99.90;;;;;;5012826;28;20474;-68
2021/05/24 06:47:10;;;;;;;1.27;1.17;;;8.50;99.90;;;;;;5013592;28;20036;-68
2021/05/24 06:49:36;;;;;;;1.50;1.40;;;8.40;99.90;;;;;;5012402;28;20019;-76
2021/05/24 06:52:03;;;;;;;2.35;1.52;;;8.40;99.90;;;;;;4996530;28;20049;-74
2021/05/24 06:54:29;;;;;;;2.17;1.50;;;8.90;99.90;;;;;;5020124;28;20026;-72
2021/05/24 06:56:54;;;;;;;1.85;1.30;;;9.20;99.90;;;;;;5011422;28;20045;-72
2021/05/24 06:59:20;;;;;;;2.03;1.63;;;9.20;99.90;;;;;;5013325;28;20018;-72
2021/05/24 07:01:46;;;;;;;2.95;1.40;;;9.00;99.90;;;;;;5013474;28;20106;-72
2021/05/24 07:04:12;;;;;;;4.40;1.67;;;8.80;99.90;;;;;;5014220;28;20029;-72
2021/05/24 07:06:38;;;;;;;2.78;1.50;;;8.70;99.90;;;;;;5011384;28;20026;-72
2021/05/24 07:09:04;;;;;;;1.60;1.30;;;8.60;99.90;;;;;;5016364;28;20068;-72
2021/05/24 07:11:30;;;;;;;3.65;1.50;;;8.50;99.90;;;;;;5013283;28;20109;-72
2021/05/24 07:13:55;;;;;;;3.20;1.70;;;8.50;99.90;;;;;;5012011;28;20229;-72
2021/05/24 07:16:21;;;;;;;2.10;1.55;;;8.40;99.90;;;;;;5030558;28;20079;-72
2021/05/24 07:18:47;;;;;;;2.22;1.58;;;8.40;99.90;;;;;;5023098;28;20096;-72
2021/05/24 07:21:13;;;;;;;2.42;1.60;;;8.50;99.90;;;;;;5016751;28;20358;-72
2021/05/24 07:23:38;;;;;;;2.47;1.63;;;8.50;99.90;;;;;;5014309;28;20026;-72
2021/05/24 07:26:04;;;;;;;4.03;1.38;;;8.50;99.90;;;;;;5022987;28;20485;-72
2021/05/24 07:28:30;;;;;;;1.85;1.10;;;8.50;99.90;;;;;;5017313;28;20085;-72
2021/05/24 07:30:56;;;;;;;2.20;1.40;;;8.50;99.90;;;;;;5017239;28;20026;-72
2021/05/24 07:33:21;;;;;;;1.65;1.40;;;8.60;99.90;;;;;;5014710;28;20029;-72
2021/05/24 07:35:47;;;;;;;1.40;1.30;;;8.60;99.90;;;;;;5014871;28;20121;-73
2021/05/24 07:38:13;;;;;;;2.00;1.30;;;8.70;99.90;;;;;;5029342;28;20073;-72
2021/05/24 07:40:39;;;;;;;1.95;1.65;;;8.80;99.90;;;;;;5029542;28;20067;-73
2021/05/24 07:43:04;;;;;;;3.33;1.60;;;8.80;99.90;;;;;;5029497;28;20140;-72
2021/05/24 07:45:30;;;;;;;2.85;1.30;;;8.80;99.90;;;;;;5029187;28;20025;-72
2021/05/24 07:47:56;;;;;;;1.23;1.08;;;8.80;99.90;;;;;;5034028;28;20037;-72
2021/05/24 07:50:22;;;;;;;1.88;1.27;;;8.80;99.90;;;;;;5018304;28;20084;-72
2021/05/24 07:52:48;;;;;;;1.60;1.33;;;8.80;99.90;;;;;;5017608;28;20495;-72
2021/05/24 07:55:14;;;;;;;1.67;1.30;;;8.80;99.90;;;;;;5014675;28;20058;-73
2021/05/24 07:57:42;;;;;;;1.85;1.15;;;8.90;99.90;;;;;;5014926;28;20128;-72
2021/05/24 08:00:10;;;;;;;1.80;1.05;;;8.90;99.90;;;;;;5017897;28;20026;-74
2021/05/24 08:02:43;;;;;;;1.05;0.80;;;9.00;99.90;;;;;;5022112;28;20503;-72
2021/05/24 08:05:11;;;;;;;3.70;0.90;;;9.10;99.90;;;;;;5013690;28;20029;-72
2021/05/24 08:07:37;;;;;;;0.80;0.80;;;9.20;99.90;;;;;;5013591;28;20026;-72
2021/05/24 08:10:05;;;;;;;2.30;1.00;;;9.30;99.90;;;;;;5016274;28;20097;-72
2021/05/24 08:12:33;;;;;;;4.50;1.02;;;9.30;99.90;;;;;;5013953;28;20060;-72
2021/05/24 08:14:59;;;;;;;1.15;1.00;;;9.40;99.90;;;;;;5022937;28;20496;-72
2021/05/24 08:17:25;;;;;;;2.03;1.10;;;9.40;99.90;;;;;;5028578;28;20079;-72
2021/05/24 08:19:50;;;;;;;8.85;1.40;;;9.40;99.90;;;;;;5025153;28;20052;-72
2021/05/24 08:22:16;;;;;;;4.95;1.40;;;9.40;99.90;;;;;;5017870;28;20378;-72
2021/05/24 08:24:42;;;;;;;2.00;1.00;;;9.30;99.90;;;;;;5016002;28;20018;-72
2021/05/24 08:27:08;;;;;;;2.47;1.02;;;9.40;99.90;;;;;;5017067;28;20034;-72
2021/05/24 08:29:34;;;;;;;18.60;2.00;;;9.40;99.90;;;;;;5013959;28;20036;-72
2021/05/24 08:32:00;;;;;;;20.17;1.63;;;9.30;99.90;;;;;;5016237;28;20022;-72
2021/05/24 08:34:26;;;;;;;4.80;1.10;;;9.60;99.90;;;;;;5015385;28;20036;-72
2021/05/24 08:36:51;;;;;;;1.20;1.10;;;9.50;99.90;;;;;;5020328;28;20049;-71
2021/05/24 08:39:17;;;;;;;4.45;1.20;;;9.40;99.90;;;;;;5023995;28;20088;-72
2021/05/24 08:41:43;;;;;;;1.50;1.20;;;9.50;99.90;;;;;;5016593;28;20030;-72
2021/05/24 08:44:09;;;;;;;1.70;1.00;;;9.40;99.90;;;;;;5012867;28;20735;-70
2021/05/24 08:46:38;;;;;;;3.60;1.20;;;9.70;99.90;;;;;;5014792;28;20083;-72
2021/05/24 08:49:05;;;;;;;5.37;1.20;;;9.80;99.90;;;;;;5013552;28;20046;-71
2021/05/24 08:51:31;;;;;;;1.63;0.90;;;9.70;99.90;;;;;;5016660;28;20026;-71
2021/05/24 08:53:57;;;;;;;1.95;1.00;;;9.70;99.90;;;;;;5014558;28;20069;-73
2021/05/24 08:56:23;;;;;;;4.18;1.20;;;9.80;99.90;;;;;;5014598;28;20030;-73
2021/05/24 08:58:49;;;;;;;2.50;1.17;;;9.90;99.90;;;;;;5016886;28;20117;-73
2021/05/24 09:01:15;;;;;;;1.20;0.95;;;9.90;99.90;;;;;;5015365;28;20014;-72
2021/05/24 09:03:42;;;;;;;2.92;1.08;;;10.00;99.90;;;;;;5014996;28;20388;-74
2021/05/24 09:06:10;;;;;;;4.30;0.93;;;10.10;99.90;;;;;;5012026;28;20120;-74
2021/05/24 09:08:39;;;;;;;1.17;1.08;;;10.00;99.90;;;;;;5012092;28;20032;-72
2021/05/24 09:11:27;;;;;;;3.00;1.20;;;10.10;99.90;;;;;;5014612;28;20022;-71
2021/05/24 09:13:53;;;;;;;4.05;1.30;;;10.10;99.90;;;;;;5015215;28;20501;-71
2021/05/24 09:16:30;;;;;;;1.70;1.20;;;10.10;99.90;;;;;;5031878;28;20432;-71
2021/05/24 09:19:14;;;;;;;1.10;1.00;;;10.20;99.90;;;;;;5032209;28;20029;-71
2021/05/24 09:21:57;;;;;;;3.13;1.38;;;10.20;99.90;;;;;;5019973;28;20059;-71
2021/05/24 09:24:36;;;;;;;2.40;1.40;;;10.30;99.90;;;;;;5013778;28;20116;-72
2021/05/24 09:27:04;;;;;;;1.30;1.15;;;10.30;99.90;;;;;;5014520;28;20488;-71
2021/05/24 09:29:43;;;;;;;1.15;1.00;;;10.30;99.90;;;;;;5014102;28;20025;-72
2021/05/24 09:32:15;;;;;;;2.08;1.17;;;10.40;99.90;;;;;;5013750;28;20065;-72
2021/05/24 09:34:42;;;;;;;1.42;1.10;;;10.40;99.90;;;;;;5012951;28;20029;-71
2021/05/24 09:37:08;;;;;;;5.65;1.70;;;10.50;99.90;;;;;;5018437;28;20069;-72
2021/05/24 09:39:35;;;;;;;1.38;1.08;;;10.60;99.90;;;;;;5031678;28;20515;-71
2021/05/24 09:42:07;;;;;;;1.63;1.30;;;10.70;99.90;;;;;;5031666;28;20046;-71
2021/05/24 09:44:33;;;;;;;2.15;1.02;;;10.70;99.90;;;;;;5031648;28;20088;-71
2021/05/24 09:47:01;;;;;;;2.13;1.40;;;10.70;99.90;;;;;;5031869;28;20013;-71
2021/05/24 09:49:29;;;;;;;2.42;1.20;;;10.70;99.90;;;;;;5022887;28;20033;-71
2021/05/24 09:51:59;;;;;;;1.52;1.30;;;10.50;99.90;;;;;;5030402;28;20064;-75
2021/05/24 09:54:36;;;;;;;1.45;1.15;;;10.60;99.90;;;;;;5017498;28;20508;-73
2021/05/24 09:57:06;;;;;;;4.30;1.33;;;10.60;99.70;;;;;;5026370;28;20033;-74
2021/05/24 09:59:35;;;;;;;2.00;1.20;;;10.50;99.90;;;;;;5011867;28;20030;-74
2021/05/24 10:02:04;;;;;;;5.43;1.33;;;10.50;99.90;;;;;;5012057;28;20053;-74
2021/05/24 10:04:32;;;;;;;2.53;1.10;;;10.60;99.90;;;;;;5013244;28;20092;-74
2021/05/24 10:07:01;;;;;;;3.22;1.50;;;10.70;99.90;;;;;;5031756;28;20032;-72
2021/05/24 10:09:29;;;;;;;2.03;1.63;;;10.70;99.60;;;;;;5021247;28;20164;-72
2021/05/24 10:11:55;;;;;;;1.50;1.30;;;10.70;99.70;;;;;;5031510;28;20434;-74
2021/05/24 10:14:22;;;;;;;1.98;1.15;;;10.70;99.50;;;;;;5012923;28;20081;-73
2021/05/24 10:16:56;;;;;;;1.25;1.08;;;10.70;99.00;;;;;;5011300;28;20091;-76
2021/05/24 10:19:22;;;;;;;1.65;1.17;;;10.80;99.90;;;;;;5014115;28;20104;-74
2021/05/24 10:21:49;;;;;;;1.75;1.20;;;10.60;99.90;;;;;;5030007;28;20504;-74
2021/05/24 10:24:17;;;;;;;1.63;1.40;;;10.60;99.90;;;;;;5032798;28;20478;-76
2021/05/24 10:26:45;;;;;;;1.63;1.27;;;10.50;99.90;;;;;;5029219;28;20041;-75
2021/05/24 10:29:12;;;;;;;3.17;1.27;;;10.40;99.90;;;;;;5021026;28;20478;-76
2021/05/24 10:31:38;;;;;;;2.22;1.30;;;10.50;99.90;;;;;;5019675;28;20105;-76
2021/05/24 10:34:15;;;;;;;2.58;1.40;;;10.40;99.90;;;;;;5025420;28;20033;-74
2021/05/24 10:36:42;;;;;;;1.30;1.20;;;10.50;99.90;;;;;;5031287;28;20401;-74
2021/05/24 10:39:20;;;;;;;1.88;1.40;;;10.60;99.90;;;;;;5031419;28;20029;-74
2021/05/24 10:41:55;;;;;;;1.67;1.40;;;10.70;99.90;;;;;;5032054;28;20025;-74
2021/05/24 10:44:21;;;;;;;2.47;1.30;;;10.60;99.90;;;;;;5031493;28;20099;-74
2021/05/24 10:46:48;;;;;;;1.48;1.38;;;10.60;99.90;;;;;;5031988;28;20033;-75
2021/05/24 10:49:18;;;;;;;2.72;1.20;;;10.60;99.90;;;;;;5031557;28;20022;-75
2021/05/24 10:51:46;;;;;;;1.13;0.97;;;10.70;99.90;;;;;;5031540;28;20029;-74
2021/05/24 10:54:21;;;;;;;2.15;1.40;;;10.80;99.90;;;;;;5026750;28;20036;-76
2021/05/24 10:56:47;;;;;;;6.53;1.27;;;10.90;99.90;;;;;;5028663;28;20037;-76
2021/05/24 11:02:25;;;;;;;1.13;0.90;;;10.80;99.90;;;;;;5012082;28;20030;-75
2021/05/24 11:05:20;;;;;;;1.27;1.10;;;10.80;99.90;;;;;;4994130;28;20061;-75
2021/05/24 11:07:51;;;;;;;2.55;1.50;;;10.80;99.90;;;;;;5006489;28;20073;-76
2021/05/24 11:10:17;;;;;;;2.55;1.40;;;10.80;99.90;;;;;;5011983;28;20116;-76
2021/05/24 11:12:55;;;;;;;3.60;1.40;;;10.80;99.90;;;;;;5030844;28;20024;-76
2021/05/24 11:15:32;;;;;;;3.67;1.48;;;10.60;99.90;;;;;;5034900;28;20033;-75
2021/05/24 11:18:01;;;;;;;4.70;1.60;;;10.40;99.90;;;;;;5035290;28;20061;-76
2021/05/24 11:20:48;;;;;;;4.18;1.85;;;10.40;99.90;;;;;;5035025;28;20026;-76
2021/05/24 11:28:17;;;;;;;3.72;1.60;;;10.60;99.90;;;;;;5035207;28;20036;-76
2021/05/24 11:30:43;;;;;;;5.05;2.20;;;10.60;99.90;;;;;;5034808;28;20028;-76
2021/05/24 11:33:50;;;;;;;3.50;1.95;;;10.40;99.90;;;;;;5034855;28;20029;-76
2021/05/24 11:36:20;;;;;;;4.90;2.10;;;10.40;99.90;;;;;;5032169;28;20126;-76
2021/05/24 11:39:29;;;;;;;3.50;1.90;;;10.50;99.90;;;;;;5034857;28;20108;-76
2021/05/24 11:42:11;;;;;;;4.43;1.90;;;10.40;99.90;;;;;;5034651;28;20029;-76
2021/05/24 11:44:44;;;;;;;4.50;1.95;;;10.30;99.90;;;;;;5034881;28;20319;-77
2021/05/24 11:47:16;;;;;;;4.80;2.42;;;10.20;99.90;;;;;;5034883;28;20035;-76
2021/05/24 11:49:45;;;;;;;4.90;2.50;;;10.20;99.90;;;;;;5034517;28;20036;-76
2021/05/24 11:52:13;;;;;;;4.30;1.90;;;10.10;99.90;;;;;;5034617;28;20052;-77
2021/05/24 11:54:39;;;;;;;7.88;2.20;;;10.00;99.90;;;;;;5034256;28;20108;-74
2021/05/24 11:57:08;;;;;;;3.03;1.77;;;10.00;99.90;;;;;;5034257;28;20041;-74
2021/05/24 11:59:35;;;;;;;4.32;1.77;;;10.10;99.90;;;;;;5033831;28;20030;-74
2021/05/24 12:02:03;;;;;;;3.25;1.80;;;10.00;99.90;;;;;;5027617;28;20057;-75
2021/05/24 12:04:36;;;;;;;3.40;1.80;;;10.00;99.90;;;;;;5021899;28;20120;-74
2021/05/24 12:07:12;;;;;;;4.05;1.80;;;10.10;99.90;;;;;;5022257;28;20028;-74
2021/05/24 12:09:41;;;;;;;3.08;1.70;;;10.10;99.90;;;;;;5021452;28;20041;-76
2021/05/24 12:12:29;;;;;;;5.10;1.88;;;9.90;99.90;;;;;;5022047;28;20480;-76
2021/05/24 12:15:00;;;;;;;4.22;2.20;;;10.00;99.90;;;;;;5020444;28;20109;-75
2021/05/24 12:17:34;;;;;;;2.65;2.00;;;10.10;99.90;;;;;;5022763;28;20030;-76
2021/05/24 12:20:03;;;;;;;4.53;2.13;;;10.10;99.90;;;;;;5019880;28;20022;-77
2021/05/24 12:22:33;;;;;;;3.03;1.83;;;10.00;99.90;;;;;;5032008;28;20033;-76
2021/05/24 12:24:59;;;;;;;2.30;1.73;;;10.30;99.90;;;;;;5034072;28;20040;-77
2021/05/24 12:27:27;;;;;;;5.18;2.00;;;10.20;99.90;;;;;;5034134;28;20363;-77
2021/05/24 12:30:15;;;;;;;6.20;2.20;;;10.10;99.90;;;;;;5034170;28;20029;-77
2021/05/24 12:32:54;;;;;;;5.10;2.05;;;9.90;99.90;;;;;;5033682;28;20056;-77
2021/05/24 12:35:28;;;;;;;3.85;1.65;;;9.80;99.90;;;;;;5033762;28;20021;-78
2021/05/24 12:38:08;;;;;;;5.15;2.35;;;9.80;99.90;;;;;;5015997;28;20095;-77
2021/05/24 12:40:34;;;;;;;5.68;1.88;;;9.80;99.90;;;;;;5033686;28;20025;-78
2021/05/24 12:43:01;;;;;;;7.78;2.20;;;9.70;99.90;;;;;;5033800;28;20491;-77
2021/05/24 12:45:28;;;;;;;4.10;1.90;;;9.70;99.90;;;;;;5033676;28;20103;-78
2021/05/24 12:48:11;;;;;;;6.82;1.88;;;9.70;99.90;;;;;;5033675;28;20071;-78
2021/05/24 12:50:38;;;;;;;4.07;2.10;;;9.70;99.90;;;;;;5033351;28;20380;-75
2021/05/24 12:53:12;;;;;;;7.57;2.42;;;9.70;99.90;;;;;;5033438;28;20025;-77
2021/05/24 12:55:38;;;;;;;5.32;2.42;;;9.80;99.90;;;;;;5033095;28;20507;-74
2021/05/24 12:58:35;;;;;;;8.25;2.03;;;10.40;99.90;;;;;;5033438;28;20044;-76
2021/05/24 13:01:02;;;;;;;4.25;2.17;;;10.30;99.90;;;;;;5008443;28;20450;-76
2021/05/24 13:03:49;;;;;;;5.32;2.20;;;10.20;99.90;;;;;;5017531;28;20034;-74
2021/05/24 13:06:17;;;;;;;7.53;2.10;;;10.20;99.90;;;;;;5015089;28;20117;-75
2021/05/24 13:08:53;;;;;;;3.15;1.90;;;10.10;99.90;;;;;;5019958;28;20026;-76